This is the latest recevied weather packets stored in our database for station/object SP5IZJ-2. If no packets are shown the sender has not sent any weather packets the latest 10 day(s).
| Time | Temp. | Humidity | Pressure | Rain* | Wind** | Luminosity | Snow |
|---|---|---|---|---|---|---|---|
| 1777828563 | 27.78° C | 23% | 1005.5 hPa | 0 mm | - | - | - |
| 1777828145 | 27.78° C | 23% | 1005.5 hPa | 0 mm | - | - | - |
| 1777827719 | 28.33° C | 23% | 1005.5 hPa | 0 mm | - | - | - |
| 1777826039 | 29.44° C | 22% | 1005.6 hPa | 0 mm | - | - | - |
| 1777822261 | 28.89° C | 21% | 1006 hPa | 0 mm | - | - | - |
| 1777818902 | 28.89° C | 21% | 1006.5 hPa | 0 mm | - | - | - |
| 1777818063 | 28.89° C | 21% | 1006.8 hPa | 0 mm | - | - | - |
| 1777815124 | 28.33° C | 21% | 1007.2 hPa | 0 mm | - | - | - |
| 1777813025 | 28.89° C | 22% | 1007.5 hPa | 0 mm | - | - | - |
| 1777810086 | 27.78° C | 22% | 1008 hPa | 0 mm | - | - | - |
| 1777809671 | 27.22° C | 23% | 1007.9 hPa | 0 mm | - | - | - |
| 1777808831 | 27.78° C | 22% | 1008.2 hPa | 0 mm | - | - | - |
| 1777807567 | 27.78° C | 25% | 1008.6 hPa | 0 mm | - | - | - |
| 1777807147 | 27.22° C | 24% | 1008.6 hPa | 0 mm | - | - | - |
| 1777806727 | 26.67° C | 24% | 1008.4 hPa | 0 mm | - | - | - |
| 1777805468 | 26.67° C | 23% | 1008.8 hPa | 0 mm | - | - | - |
| 1777805048 | 26.67° C | 23% | 1008.8 hPa | 0 mm | - | - | - |
| 1777804628 | 26.67° C | 23% | 1008.9 hPa | 0 mm | - | - | - |
| 1777802949 | 26.67° C | 24% | 1009.2 hPa | 0 mm | - | - | - |
| 1777802116 | 26.11° C | 26% | 1009.3 hPa | 0 mm | - | - | - |
| 1777801270 | 26.11° C | 26% | 1009.5 hPa | 0 mm | - | - | - |
| 1777800430 | 26.67° C | 27% | 1009.6 hPa | 0 mm | - | - | - |
| 1777797491 | 25.56° C | 30% | 1010 hPa | 0 mm | - | - | - |
| 1777794552 | 22.78° C | 35% | 1010.5 hPa | 0 mm | - | - | - |
| 1777793713 | 22.22° C | 36% | 1010.6 hPa | 0 mm | - | - | - |
* Rain latest hour (hover to see other rain measurements)
** Current wind speed in m/s (hover to see current wind gust speed)